TimeIST,TemperatureF,Dew PointF,Humidity,Sea Level PressureIn,VisibilityMPH,Wind Direction,Wind SpeedMPH,Gust SpeedMPH,PrecipitationIn,Events,Conditions,WindDirDegrees,DateUTC
1:00 AM,60.8,51.8,72,30.06,0.9,East,4.6,-,N/A,,Scattered Clouds,100,2014-02-24 19:30:00
2:00 AM,62.6,50.0,63,30.06,0.9,ENE,5.8,-,N/A,,Scattered Clouds,70,2014-02-24 20:30:00
2:30 AM,62,51,59,30.02,1,ENE,6.9,,,,Haze,70,2014-02-24 21:00:00
3:00 AM,62.6,50.0,63,30.04,0.9,ENE,6.9,-,N/A,,Scattered Clouds,70,2014-02-24 21:30:00
4:00 AM,60.8,51.8,72,30.04,0.9,Variable,3.5,-,N/A,Thunderstorm,Thunderstorm,0,2014-02-24 22:30:00
5:00 AM,59.0,55.4,88,30.06,0.9,SE,6.9,-,N/A,Thunderstorm,Thunderstorm,140,2014-02-24 23:30:00
5:30 AM,59,53,73,30.01,1,East,5.8,,,Rain,Light Rain,90,2014-02-25 00:00:00
6:00 AM,59.0,55.4,88,30.04,0.6,ENE,4.6,-,N/A,Rain-Thunderstorm,Thunderstorms and Rain,70,2014-02-25 00:30:00
7:00 AM,59.0,55.4,88,30.06,0.6,Variable,4.6,-,N/A,Rain-Thunderstorm,Thunderstorms and Rain,0,2014-02-25 01:30:00
8:00 AM,60.8,57.2,88,30.09,0.8,Variable,2.3,-,N/A,,Mostly Cloudy,0,2014-02-25 02:30:00
8:30 AM,63,45,40,30.04,1,NE,3.5,,,,Haze,50,2014-02-25 03:00:00
10:00 AM,66.2,55.4,68,30.12,1.2,East,9.2,-,N/A,,Haze,90,2014-02-25 04:30:00
11:00 AM,68.0,55.4,64,30.12,0.9,East,10.4,-,N/A,,Haze,90,2014-02-25 05:30:00
11:30 AM,70,56,52,30.06,1,East,5.8,,,,Haze,90,2014-02-25 06:00:00
11:30 AM,69.8,55.4,60,30.09,1.2,East,10.4,-,N/A,,Haze,90,2014-02-25 06:00:00
12:00 PM,71.6,55.4,57,30.09,1.6,East,9.2,-,N/A,,Haze,100,2014-02-25 06:30:00
12:30 PM,71.6,55.4,57,30.09,1.6,ESE,6.9,-,N/A,,Haze,120,2014-02-25 07:00:00
1:00 PM,71.6,57.2,60,30.06,1.6,East,8.1,-,N/A,,Haze,100,2014-02-25 07:30:00
2:00 PM,73.4,53.6,50,30.04,1.6,ESE,9.2,-,N/A,,Haze,120,2014-02-25 08:30:00
2:30 PM,75,55,39,29.99,1,ESE,6.9,,,,Haze,110,2014-02-25 09:00:00
2:30 PM,73.4,55.4,53,30.04,1.6,East,8.1,-,N/A,,Haze,100,2014-02-25 09:00:00
3:30 PM,73.4,55.4,53,30.01,1.9,East,9.2,-,N/A,,Haze,100,2014-02-25 10:00:00
4:00 PM,73.4,55.4,53,30.01,1.9,ESE,9.2,-,N/A,,Haze,110,2014-02-25 10:30:00
4:30 PM,73.4,57.2,57,30.01,1.9,East,10.4,-,N/A,,Haze,100,2014-02-25 11:00:00
5:00 PM,73.4,57.2,57,30.01,1.9,East,10.4,-,N/A,,Haze,100,2014-02-25 11:30:00
5:30 PM,71,58,54,29.96,1,ENE,11.5,,,,Haze,70,2014-02-25 12:00:00
6:00 PM,69.8,57.2,64,30.01,1.6,East,9.2,-,N/A,,Haze,90,2014-02-25 12:30:00
6:30 PM,69.8,57.2,64,30.01,1.2,East,9.2,-,N/A,,Haze,100,2014-02-25 13:00:00
7:00 PM,68.0,57.2,68,30.01,1.2,East,8.1,-,N/A,,Haze,90,2014-02-25 13:30:00
8:00 PM,68.0,57.2,68,30.04,1.2,East,9.2,-,N/A,,Haze,90,2014-02-25 14:30:00
9:00 PM,66.2,55.4,68,30.04,1.2,East,10.4,-,N/A,,Haze,90,2014-02-25 15:30:00
10:00 PM,66.2,55.4,68,30.04,1.2,East,9.2,-,N/A,,Haze,90,2014-02-25 16:30:00
11:00 PM,64.4,55.4,73,30.04,1.2,East,8.1,-,N/A,,Haze,90,2014-02-25 17:30:00
11:30 PM,64,54,61,30.00,1,East,6.9,,,,Haze,90,2014-02-25 18:00:00